createdAt,value
2022-12-15T00:01:12.084Z,89.58
2022-12-15T00:04:02.812Z,89.73
2022-12-15T00:06:53.566Z,88.93
2022-12-15T00:09:44.109Z,91.66
2022-12-15T00:12:35.819Z,94.02
2022-12-15T00:15:27.316Z,93.42
2022-12-15T00:18:23.129Z,93.47
2022-12-15T00:21:16.498Z,94.58
2022-12-15T00:24:06.796Z,93.43
2022-12-15T00:26:57.122Z,93.29
2022-12-15T00:29:48.948Z,93.83
2022-12-15T00:32:40.475Z,93.00
2022-12-15T00:35:30.839Z,93.27
2022-12-15T00:38:25.812Z,94.23
2022-12-15T00:40:59.921Z,94.00
2022-12-15T00:43:35.378Z,94.51
2022-12-15T00:46:28.038Z,94.84
2022-12-15T00:49:01.360Z,94.12
2022-12-15T00:51:51.632Z,94.61
2022-12-15T00:54:41.828Z,93.91
2022-12-15T00:57:32.220Z,93.90
2022-12-15T01:00:23.598Z,94.29
2022-12-15T01:03:16.736Z,94.96
2022-12-15T01:06:07.287Z,94.43
2022-12-15T01:08:57.658Z,93.40
2022-12-15T01:11:47.999Z,94.73
2022-12-15T01:14:38.612Z,94.92
2022-12-15T01:17:30.694Z,94.84
2022-12-15T01:20:18.529Z,94.80
2022-12-15T01:22:53.793Z,95.54
2022-12-15T01:25:27.521Z,95.23
2022-12-15T01:28:00.534Z,95.42
2022-12-15T01:30:33.315Z,95.04
2022-12-15T01:33:06.694Z,95.20
2022-12-15T01:35:41.332Z,96.38
2022-12-15T01:38:14.703Z,95.15
2022-12-15T01:40:52.426Z,96.07
2022-12-15T01:43:27.632Z,95.40
2022-12-15T01:46:07.544Z,94.35
2022-12-15T01:48:45.299Z,94.20
2022-12-15T01:51:26.444Z,94.33
2022-12-15T01:54:05.479Z,94.50
2022-12-15T01:56:41.216Z,94.66
2022-12-15T01:59:17.377Z,95.09
2022-12-15T02:01:50.516Z,94.77
2022-12-15T02:04:24.949Z,95.52
2022-12-15T02:06:59.952Z,95.40
2022-12-15T02:09:33.092Z,94.55
2022-12-15T02:12:17.437Z,95.02
2022-12-15T02:15:07.178Z,95.81
2022-12-15T02:17:49.506Z,95.61
2022-12-15T02:20:47.059Z,95.65
2022-12-15T02:23:53.227Z,96.28
2022-12-15T02:27:03.130Z,96.20
2022-12-15T02:30:01.553Z,95.46
2022-12-15T02:32:43.039Z,96.03
2022-12-15T02:35:22.771Z,95.75
2022-12-15T02:37:55.951Z,96.24
2022-12-15T02:40:29.034Z,95.88
2022-12-15T02:43:05.563Z,95.80
2022-12-15T02:45:53.613Z,95.90
2022-12-15T02:48:35.604Z,96.39
2022-12-15T02:51:23.518Z,96.85
2022-12-15T02:54:28.648Z,96.87
2022-12-15T02:57:08.536Z,96.31
2022-12-15T02:59:47.075Z,96.56
2022-12-15T03:02:20.290Z,95.56
2022-12-15T03:04:56.065Z,95.60
2022-12-15T03:07:29.097Z,95.37
2022-12-15T03:10:05.663Z,94.63
2022-12-15T03:12:38.874Z,94.53
2022-12-15T03:15:12.298Z,93.92
2022-12-15T03:17:45.810Z,92.79
2022-12-15T03:20:20.611Z,94.54
2022-12-15T03:22:53.853Z,94.90
2022-12-15T03:25:26.784Z,94.52
2022-12-15T03:27:59.643Z,94.56
2022-12-15T03:30:32.397Z,94.12
2022-12-15T03:33:05.620Z,94.95
2022-12-15T03:35:40.371Z,95.55
2022-12-15T03:38:14.024Z,96.03
2022-12-15T03:40:47.196Z,95.68
2022-12-15T03:43:20.036Z,95.35
2022-12-15T03:45:52.925Z,96.13
2022-12-15T03:48:25.739Z,96.58
2022-12-15T03:50:59.894Z,96.92
2022-12-15T03:53:32.881Z,97.24
2022-12-15T03:56:06.374Z,96.73
2022-12-15T03:58:39.202Z,96.63
2022-12-15T04:01:13.282Z,96.65
2022-12-15T04:03:46.140Z,97.24
2022-12-15T04:06:20.588Z,96.59
2022-12-15T04:08:53.395Z,97.32
2022-12-15T04:11:26.188Z,97.18
2022-12-15T04:13:58.923Z,96.91
2022-12-15T04:16:32.736Z,96.64
2022-12-15T04:19:23.573Z,97.44
2022-12-15T04:21:58.010Z,97.40
2022-12-15T04:24:48.450Z,97.29
2022-12-15T04:27:38.744Z,97.34
2022-12-15T04:30:32.181Z,97.44
2022-12-15T04:33:29.075Z,96.58
2022-12-15T04:36:21.426Z,96.90
2022-12-15T04:39:13.362Z,96.78
2022-12-15T04:42:03.578Z,96.92
2022-12-15T04:44:54.758Z,96.96
2022-12-15T04:47:45.053Z,96.69
2022-12-15T04:50:35.392Z,97.55
2022-12-15T04:53:27.433Z,97.00
2022-12-15T04:56:19.166Z,97.40
2022-12-15T04:59:09.579Z,97.64
2022-12-15T05:02:00.814Z,97.60
2022-12-15T05:04:51.422Z,97.91
2022-12-15T05:07:44.560Z,97.37
2022-12-15T05:10:35.215Z,98.08
2022-12-15T05:13:27.502Z,97.97
2022-12-15T05:16:18.466Z,97.63
2022-12-15T05:19:09.215Z,98.17
2022-12-15T05:21:59.719Z,97.78
2022-12-15T05:24:50.101Z,98.14
2022-12-15T05:27:40.533Z,96.94
2022-12-15T05:30:32.642Z,98.29
2022-12-15T05:33:05.657Z,97.72
2022-12-15T05:35:38.517Z,97.13
2022-12-15T05:38:11.407Z,97.74
2022-12-15T05:40:44.169Z,97.45
2022-12-15T05:43:21.691Z,97.79
2022-12-15T05:46:04.094Z,98.00
2022-12-15T05:48:37.033Z,97.58
2022-12-15T05:51:11.199Z,97.69
2022-12-15T05:53:46.265Z,98.44
2022-12-15T05:56:19.117Z,98.28
2022-12-15T05:58:51.974Z,97.75
2022-12-15T06:01:27.172Z,98.03
2022-12-15T06:04:01.443Z,97.63
2022-12-15T06:06:34.649Z,97.54
2022-12-15T06:09:07.573Z,97.38
2022-12-15T06:11:40.332Z,97.83
2022-12-15T06:14:13.169Z,97.67
2022-12-15T06:16:50.847Z,97.77
2022-12-15T06:19:24.662Z,97.64
2022-12-15T06:21:57.626Z,97.74
2022-12-15T06:24:30.424Z,97.62
2022-12-15T06:27:03.180Z,97.31
2022-12-15T06:29:36.305Z,96.58
2022-12-15T06:32:10.587Z,97.60
2022-12-15T06:34:43.334Z,97.09
2022-12-15T06:37:16.124Z,97.76
2022-12-15T06:39:48.933Z,96.84
2022-12-15T06:42:21.736Z,97.43
2022-12-15T06:44:54.592Z,96.66
2022-12-15T06:47:28.879Z,96.98
2022-12-15T06:50:02.075Z,97.19
2022-12-15T06:52:34.841Z,96.97
2022-12-15T06:55:08.514Z,97.25
2022-12-15T06:57:41.268Z,97.47
2022-12-15T07:00:15.765Z,97.26
2022-12-15T07:02:50.276Z,97.66
2022-12-15T07:05:23.274Z,97.65
2022-12-15T07:07:56.151Z,97.47
2022-12-15T07:10:29.103Z,97.38
2022-12-15T07:13:02.979Z,96.98
2022-12-15T07:15:35.751Z,97.36
2022-12-15T07:18:11.298Z,97.84
2022-12-15T07:20:44.916Z,97.91
2022-12-15T07:23:34.398Z,97.43
2022-12-15T07:26:15.926Z,96.95
2022-12-15T07:28:49.062Z,97.63
2022-12-15T07:31:23.147Z,96.76
2022-12-15T07:33:58.238Z,97.34
2022-12-15T07:36:31.083Z,96.67
2022-12-15T07:39:05.646Z,97.03
2022-12-15T07:41:40.539Z,97.35
2022-12-15T07:44:13.657Z,97.90
2022-12-15T07:46:49.014Z,97.17
2022-12-15T07:49:23.736Z,97.64
2022-12-15T07:51:58.359Z,97.95
2022-12-15T07:54:31.589Z,97.43
2022-12-15T07:57:05.635Z,98.08
2022-12-15T07:59:38.422Z,97.12
2022-12-15T08:02:11.869Z,97.98
2022-12-15T08:04:46.607Z,97.89
2022-12-15T08:07:19.666Z,97.58
2022-12-15T08:09:53.787Z,97.55
2022-12-15T08:12:28.176Z,97.12
2022-12-15T08:15:01.093Z,96.61
2022-12-15T08:17:34.082Z,97.09
2022-12-15T08:20:10.298Z,96.80
2022-12-15T08:22:43.374Z,96.58
2022-12-15T08:25:17.015Z,95.94
2022-12-15T08:27:51.152Z,95.76
2022-12-15T08:30:24.311Z,95.68
2022-12-15T08:32:57.123Z,95.36
2022-12-15T08:35:55.828Z,95.04
2022-12-15T08:38:24.270Z,94.38
2022-12-15T08:40:58.039Z,94.83
2022-12-15T08:43:31.340Z,94.32
2022-12-15T08:46:04.862Z,93.99
2022-12-15T08:48:37.674Z,93.46
2022-12-15T08:51:11.935Z,92.97
2022-12-15T08:53:45.123Z,93.17
2022-12-15T08:56:21.213Z,93.07
2022-12-15T08:58:56.923Z,93.33
2022-12-15T09:01:32.098Z,92.47
2022-12-15T09:04:05.296Z,92.51
2022-12-15T09:06:39.481Z,91.87
2022-12-15T09:09:13.870Z,91.70
2022-12-15T09:11:46.857Z,91.82
2022-12-15T09:14:27.080Z,90.88
2022-12-15T09:17:01.831Z,90.61
2022-12-15T09:19:36.455Z,90.93
2022-12-15T09:22:10.573Z,90.80
2022-12-15T09:24:43.329Z,90.29
2022-12-15T09:27:16.406Z,90.43
2022-12-15T09:29:49.152Z,89.32
2022-12-15T09:32:22.442Z,89.34
2022-12-15T09:34:55.658Z,88.85
2022-12-15T09:37:31.847Z,88.66
2022-12-15T09:40:06.679Z,88.46
2022-12-15T09:42:42.291Z,88.59
2022-12-15T09:45:18.918Z,88.27
2022-12-15T09:47:59.415Z,87.46
2022-12-15T09:50:37.051Z,87.40
2022-12-15T09:53:45.540Z,86.50
2022-12-15T09:56:13.973Z,86.66
2022-12-15T09:58:55.423Z,86.03
2022-12-15T10:01:41.109Z,86.00
2022-12-15T10:04:21.535Z,85.64
2022-12-15T10:06:59.777Z,86.80
2022-12-15T10:09:34.138Z,86.12
2022-12-15T10:12:13.126Z,84.93
2022-12-15T10:14:51.017Z,84.76
2022-12-15T10:17:26.680Z,84.69
2022-12-15T10:20:06.312Z,84.00
2022-12-15T10:22:39.223Z,83.58
2022-12-15T10:25:23.583Z,83.18
2022-12-15T10:28:12.014Z,83.50
2022-12-15T10:30:52.632Z,81.92
2022-12-15T10:33:27.665Z,82.36
2022-12-15T10:36:00.308Z,82.51
2022-12-15T10:38:37.580Z,82.52
2022-12-15T10:41:13.362Z,83.31
2022-12-15T10:43:48.070Z,81.71
2022-12-15T10:46:25.472Z,81.87
2022-12-15T10:48:59.184Z,81.08
2022-12-15T10:51:33.744Z,82.50
2022-12-15T10:54:12.913Z,82.04
2022-12-15T10:56:52.048Z,81.30
2022-12-15T10:59:29.395Z,81.57
2022-12-15T11:02:29.461Z,81.77
2022-12-15T11:05:05.325Z,81.22
2022-12-15T11:07:41.694Z,80.69
2022-12-15T11:10:21.165Z,80.01
2022-12-15T11:13:10.452Z,79.91
2022-12-15T11:15:47.158Z,78.78
2022-12-15T11:18:33.450Z,77.50
2022-12-15T11:21:12.611Z,78.63
2022-12-15T11:24:05.853Z,78.51
2022-12-15T11:26:48.994Z,79.69
2022-12-15T11:29:30.650Z,78.77
2022-12-15T11:34:57.566Z,77.47
2022-12-15T11:37:42.134Z,78.20
2022-12-15T11:40:34.406Z,78.00
2022-12-15T11:43:34.805Z,75.91
2022-12-15T11:46:22.732Z,76.36
2022-12-15T11:49:12.845Z,76.44
2022-12-15T11:51:51.729Z,72.80
2022-12-15T11:54:29.670Z,74.93
2022-12-15T11:57:11.409Z,73.95
2022-12-15T11:59:57.423Z,73.20
2022-12-15T12:02:56.867Z,71.89
2022-12-15T12:05:52.352Z,73.06
2022-12-15T12:08:44.130Z,72.96
2022-12-15T12:11:21.191Z,73.52
2022-12-15T12:14:14.078Z,70.78
2022-12-15T12:16:56.113Z,71.08
2022-12-15T12:19:36.085Z,70.96
2022-12-15T12:22:17.198Z,69.83
2022-12-15T12:24:56.518Z,70.24
2022-12-15T12:27:40.564Z,69.84
2022-12-15T12:30:16.676Z,70.44
2022-12-15T12:32:55.196Z,70.82
2022-12-15T12:35:38.475Z,70.43
2022-12-15T12:38:13.002Z,68.68
2022-12-15T12:40:58.580Z,70.22
2022-12-15T12:43:34.951Z,68.06
2022-12-15T12:46:15.260Z,69.86
2022-12-15T12:48:51.535Z,69.94
2022-12-15T12:51:29.986Z,67.78
2022-12-15T12:54:03.860Z,65.78
2022-12-15T12:56:40.900Z,66.77
2022-12-15T12:59:37.668Z,64.93
2022-12-15T13:02:46.656Z,65.21
2022-12-15T13:05:26.573Z,66.34
2022-12-15T13:08:34.678Z,70.43
2022-12-15T13:11:43.060Z,68.16
2022-12-15T13:14:25.896Z,65.88
2022-12-15T13:20:22.517Z,67.30
2022-12-15T13:22:57.886Z,65.60
2022-12-15T13:25:48.570Z,67.38
2022-12-15T13:28:45.997Z,67.23
2022-12-15T13:31:33.177Z,69.03
2022-12-15T13:34:14.937Z,66.86
2022-12-15T13:36:59.591Z,67.32
2022-12-15T13:39:35.712Z,67.44
2022-12-15T13:42:34.980Z,69.06
2022-12-15T13:45:50.401Z,66.09
2022-12-15T13:48:30.823Z,65.85
2022-12-15T13:51:13.624Z,68.25
2022-12-15T13:53:51.638Z,66.02
2022-12-15T13:56:37.102Z,65.71
2022-12-15T13:59:19.667Z,68.38
2022-12-15T14:01:53.957Z,66.36
2022-12-15T14:04:28.226Z,64.62
2022-12-15T14:07:02.885Z,67.52
2022-12-15T14:09:39.587Z,66.08
2022-12-15T14:12:14.826Z,68.84
2022-12-15T14:14:50.034Z,68.66
2022-12-15T14:17:23.241Z,72.37
2022-12-15T14:19:57.377Z,66.80
2022-12-15T14:22:31.015Z,70.27
2022-12-15T14:25:15.677Z,71.35
2022-12-15T14:30:42.450Z,66.59
2022-12-15T14:33:17.983Z,65.70
2022-12-15T14:35:55.341Z,62.44
2022-12-15T14:38:33.318Z,62.81
2022-12-15T14:41:07.473Z,60.94
2022-12-15T14:43:41.133Z,62.30
2022-12-15T14:46:18.386Z,59.27
2022-12-15T14:48:57.315Z,58.02
2022-12-15T14:51:41.491Z,59.13
2022-12-15T14:54:29.470Z,67.67
2022-12-15T14:57:12.214Z,66.02
2022-12-15T14:59:48.477Z,70.29
2022-12-15T15:02:24.735Z,67.06
2022-12-15T15:03:06.969Z,77.95
2022-12-15T15:03:15.443Z,64.61
2022-12-15T15:03:16.358Z,67.38
2022-12-15T15:05:04.033Z,71.16
2022-12-15T15:07:39.674Z,67.55
2022-12-15T15:10:23.194Z,72.94
2022-12-15T15:12:56.237Z,73.04
2022-12-15T15:15:29.451Z,73.63
2022-12-15T15:18:02.433Z,72.93
2022-12-15T15:20:35.853Z,74.34
2022-12-15T15:23:17.498Z,73.15
2022-12-15T15:25:52.262Z,69.96
2022-12-15T15:28:27.484Z,74.37
2022-12-15T15:31:06.080Z,74.91
2022-12-15T15:33:39.225Z,75.35
2022-12-15T15:36:13.211Z,75.22
2022-12-15T15:38:47.762Z,73.87
2022-12-15T15:41:23.276Z,75.70
2022-12-15T15:43:56.926Z,75.46
2022-12-15T15:46:31.813Z,75.95
2022-12-15T15:49:08.264Z,73.85
2022-12-15T15:51:42.050Z,73.46
2022-12-15T15:54:18.856Z,76.40
2022-12-15T15:56:51.886Z,76.12
2022-12-15T15:59:24.893Z,76.38
2022-12-15T16:01:59.133Z,77.91
2022-12-15T16:04:32.215Z,76.30
2022-12-15T16:07:05.635Z,77.35
2022-12-15T16:09:39.951Z,76.50
2022-12-15T16:12:24.610Z,76.59
2022-12-15T16:14:57.686Z,76.93
2022-12-15T16:17:30.560Z,76.89
2022-12-15T16:20:03.799Z,77.45
2022-12-15T16:22:36.699Z,78.85
2022-12-15T16:25:17.128Z,76.95
2022-12-15T16:27:49.980Z,77.71
2022-12-15T16:30:27.892Z,78.15
2022-12-15T16:33:02.009Z,77.81
2022-12-15T16:35:34.877Z,77.80
2022-12-15T16:38:14.208Z,79.69
2022-12-15T16:40:48.538Z,79.59
2022-12-15T16:43:22.961Z,79.56
2022-12-15T16:45:56.857Z,79.62
2022-12-15T16:48:30.286Z,79.65
2022-12-15T16:51:07.558Z,80.23
2022-12-15T16:53:43.519Z,81.19
2022-12-15T16:56:17.671Z,82.51
2022-12-15T16:58:57.542Z,80.73
2022-12-15T17:01:41.729Z,80.39
2022-12-15T17:04:16.176Z,81.12
2022-12-15T17:06:49.618Z,82.91
2022-12-15T17:09:24.955Z,82.84
2022-12-15T17:12:00.864Z,81.62
2022-12-15T17:14:33.631Z,81.61
2022-12-15T17:17:13.438Z,81.83
2022-12-15T17:22:40.050Z,82.00
2022-12-15T17:25:37.560Z,81.12
2022-12-15T17:28:20.923Z,81.07
2022-12-15T17:30:53.962Z,82.05
2022-12-15T17:33:28.285Z,82.04
2022-12-15T17:36:04.177Z,82.81
2022-12-15T17:38:37.038Z,84.05
2022-12-15T17:41:28.831Z,83.87
2022-12-15T17:44:36.135Z,83.69
2022-12-15T17:47:09.976Z,82.92
2022-12-15T17:49:43.285Z,83.26
2022-12-15T17:52:24.947Z,84.76
2022-12-15T17:54:58.361Z,84.87
2022-12-15T17:57:31.948Z,85.10
2022-12-15T18:00:17.002Z,83.74
2022-12-15T18:02:50.434Z,83.58
2022-12-15T18:05:27.005Z,83.80
2022-12-15T18:08:02.312Z,83.95
2022-12-15T18:10:40.966Z,84.52
2022-12-15T18:13:18.022Z,82.77
2022-12-15T18:15:52.752Z,81.75
2022-12-15T18:18:26.791Z,82.16
2022-12-15T18:21:03.205Z,83.64
2022-12-15T18:23:36.215Z,84.84
2022-12-15T18:26:12.370Z,84.47
2022-12-15T18:28:45.286Z,85.22
2022-12-15T18:31:22.154Z,85.79
2022-12-15T18:34:01.101Z,85.20
2022-12-15T18:36:37.079Z,84.97
2022-12-15T18:39:19.653Z,84.22
2022-12-15T18:41:54.788Z,84.44
2022-12-15T18:44:29.836Z,83.78
2022-12-15T18:47:06.869Z,82.78
2022-12-15T18:49:41.008Z,83.69
2022-12-15T18:52:18.538Z,83.52
2022-12-15T18:54:54.005Z,84.18
2022-12-15T18:57:29.910Z,86.51
2022-12-15T19:00:09.039Z,86.35
2022-12-15T19:02:43.983Z,86.22
2022-12-15T19:05:28.756Z,86.90
2022-12-15T19:08:10.247Z,86.81
2022-12-15T19:10:50.678Z,86.19
2022-12-15T19:13:25.735Z,85.95
2022-12-15T19:15:59.548Z,85.56
2022-12-15T19:18:51.559Z,84.24
2022-12-15T19:21:48.071Z,86.02
2022-12-15T19:24:45.402Z,86.97
2022-12-15T19:27:20.878Z,88.08
2022-12-15T19:29:54.736Z,87.15
2022-12-15T19:32:27.849Z,86.21
2022-12-15T19:35:06.386Z,86.02
2022-12-15T19:37:41.567Z,85.97
2022-12-15T19:40:20.386Z,86.37
2022-12-15T19:42:55.309Z,86.31
2022-12-15T19:45:30.594Z,86.90
2022-12-15T19:48:03.340Z,85.91
2022-12-15T19:50:38.956Z,87.08
2022-12-15T19:53:17.376Z,87.65
2022-12-15T19:55:51.710Z,86.83
2022-12-15T19:58:29.192Z,85.77
2022-12-15T20:01:03.810Z,85.28
2022-12-15T20:03:37.445Z,87.69
2022-12-15T20:06:16.975Z,87.11
2022-12-15T20:08:52.473Z,87.18
2022-12-15T20:11:30.280Z,85.87
2022-12-15T20:14:05.029Z,87.38
2022-12-15T20:16:37.935Z,88.37
2022-12-15T20:19:10.863Z,89.09
2022-12-15T20:21:45.168Z,86.80
2022-12-15T20:24:20.643Z,86.70
2022-12-15T20:26:53.507Z,86.44
2022-12-15T20:29:29.868Z,86.24
2022-12-15T20:32:02.935Z,86.16
2022-12-15T20:34:35.774Z,87.26
2022-12-15T20:37:19.153Z,87.93
2022-12-15T20:39:57.112Z,86.69
2022-12-15T20:42:30.862Z,86.44
2022-12-15T20:45:04.131Z,85.66
2022-12-15T20:47:40.928Z,85.96
2022-12-15T20:50:25.016Z,87.25
2022-12-15T20:52:59.436Z,85.47
2022-12-15T20:55:32.561Z,87.16
2022-12-15T20:58:05.430Z,87.03
2022-12-15T21:00:38.327Z,86.63
2022-12-15T21:03:20.510Z,89.12
2022-12-15T21:05:55.768Z,91.23
2022-12-15T21:08:32.314Z,94.20
2022-12-15T21:11:14.049Z,91.65
2022-12-15T21:13:50.104Z,89.16
2022-12-15T21:16:26.600Z,88.89
2022-12-15T21:19:19.851Z,89.51
2022-12-15T21:21:55.875Z,91.60
2022-12-15T21:24:33.187Z,92.12
2022-12-15T21:27:07.209Z,94.80
2022-12-15T21:29:40.566Z,94.26
2022-12-15T21:32:13.569Z,93.82
2022-12-15T21:34:46.433Z,93.50
2022-12-15T21:37:26.438Z,92.89
2022-12-15T21:40:01.326Z,91.82
2022-12-15T21:42:36.023Z,89.43
2022-12-15T21:45:14.931Z,90.37
2022-12-15T21:48:06.588Z,90.52
2022-12-15T21:50:40.899Z,88.66
2022-12-15T21:53:17.398Z,88.48
2022-12-15T21:55:51.820Z,89.11
2022-12-15T21:58:24.862Z,87.86
2022-12-15T22:00:57.952Z,89.45
2022-12-15T22:03:30.841Z,88.95
2022-12-15T22:06:03.686Z,87.36
2022-12-15T22:08:36.670Z,86.98
2022-12-15T22:11:19.553Z,90.48
2022-12-15T22:13:53.915Z,91.48
2022-12-15T22:16:28.293Z,91.30
2022-12-15T22:19:01.859Z,89.97
2022-12-15T22:21:34.662Z,88.52
2022-12-15T22:24:09.716Z,86.95
2022-12-15T22:26:44.197Z,87.22
2022-12-15T22:29:19.265Z,87.46
2022-12-15T22:31:52.554Z,88.18
2022-12-15T22:34:28.483Z,86.61
2022-12-15T22:37:01.715Z,88.06
2022-12-15T22:39:36.002Z,90.63
2022-12-15T22:42:16.681Z,90.08
2022-12-15T22:44:49.488Z,89.45
2022-12-15T22:47:22.345Z,89.17
2022-12-15T22:49:56.480Z,88.70
2022-12-15T22:52:29.485Z,88.07
2022-12-15T22:55:02.326Z,87.59
2022-12-15T22:57:36.598Z,86.97
2022-12-15T23:00:11.351Z,86.63
2022-12-15T23:02:46.193Z,87.61
2022-12-15T23:05:19.990Z,86.42
2022-12-15T23:07:53.917Z,87.57
2022-12-15T23:10:46.187Z,89.59
2022-12-15T23:13:20.484Z,87.40
2022-12-15T23:16:11.425Z,87.24
2022-12-15T23:18:44.558Z,88.38
2022-12-15T23:21:17.544Z,87.43
2022-12-15T23:23:50.530Z,88.02
2022-12-15T23:26:23.957Z,87.80
2022-12-15T23:28:58.691Z,87.22
2022-12-15T23:31:31.804Z,87.83
2022-12-15T23:34:04.756Z,87.66
2022-12-15T23:36:37.671Z,86.26
2022-12-15T23:39:10.532Z,87.17
2022-12-15T23:41:43.352Z,88.23
2022-12-15T23:44:20.094Z,86.83
2022-12-15T23:46:52.966Z,87.76
2022-12-15T23:49:25.727Z,88.38
2022-12-15T23:51:58.710Z,87.37
2022-12-15T23:54:31.573Z,92.32
2022-12-15T23:57:05.788Z,92.79
2022-12-15T23:59:40.196Z,90.17
